Time;durP1;ratioP1;P1;durP2;ratioP2;P2;SDS_P1;SDS_P2;PMS_P1;PMS_P2;Temp;Humidity;BMP_temperature;BMP_pressure;BME280_temperature;BME280_humidity;BME280_pressure;Samples;Min_cycle;Max_cycle;Signal;HPM_P1;HPM_P2
2021/09/16 00:01:26;;;;;;;0.30;0.30;;;;;;;7.43;74.54;99578.31;5036007;28;20532;-78
2021/09/16 00:03:52;;;;;;;0.30;0.30;;;;;;;7.42;74.37;99580.16;5068615;28;20049;-75
2021/09/16 00:06:18;;;;;;;0.30;0.30;;;;;;;7.44;73.86;99583.56;5051916;28;20060;-76
2021/09/16 00:08:44;;;;;;;0.30;0.30;;;;;;;7.46;73.87;99588.81;5054831;28;20045;-75
2021/09/16 00:11:09;;;;;;;0.30;0.30;;;;;;;7.44;72.84;99586.25;5037415;28;20052;-75
2021/09/16 00:13:35;;;;;;;0.30;0.30;;;;;;;7.42;72.72;99577.47;5053945;28;20064;-75
2021/09/16 00:16:01;;;;;;;0.30;0.30;;;;;;;7.39;72.71;99582.25;5053323;28;20110;-77
2021/09/16 00:18:27;;;;;;;0.30;0.30;;;;;;;7.33;72.37;99583.63;5053812;28;20721;-75
2021/09/16 00:20:53;;;;;;;0.30;0.30;;;;;;;7.26;73.01;99590.53;5068929;28;20136;-74
2021/09/16 00:23:19;;;;;;;0.30;0.30;;;;;;;7.30;73.02;99589.28;5068288;28;20072;-75
2021/09/16 00:25:44;;;;;;;0.30;0.30;;;;;;;7.32;73.55;99591.84;5068028;28;20053;-75
2021/09/16 00:28:10;;;;;;;0.30;0.30;;;;;;;7.38;73.33;99592.16;5051388;28;20057;-75
2021/09/16 00:30:36;;;;;;;0.30;0.30;;;;;;;7.46;72.81;99600.44;5051158;28;20152;-77
2021/09/16 00:33:02;;;;;;;0.30;0.30;;;;;;;7.53;72.73;99602.56;5051377;28;20157;-75
2021/09/16 00:35:28;;;;;;;0.30;0.30;;;;;;;7.49;73.01;99604.66;5051451;28;20470;-76
2021/09/16 00:37:54;;;;;;;0.30;0.30;;;;;;;7.51;73.16;99615.31;5050704;28;20053;-75
2021/09/16 00:40:19;;;;;;;0.30;0.30;;;;;;;7.48;73.58;99609.19;5051076;28;20057;-75
2021/09/16 00:42:45;;;;;;;0.30;0.30;;;;;;;7.48;73.34;99614.56;5034596;28;20044;-74
2021/09/16 00:45:12;;;;;;;0.30;0.30;;;;;;;7.56;72.72;99613.91;5051476;28;20202;-75
2021/09/16 00:47:50;;;;;;;0.30;0.30;;;;;;;7.58;72.54;99613.78;5050753;28;20053;-75
2021/09/16 00:50:20;;;;;;;0.30;0.30;;;;;;;7.48;72.80;99613.72;5067519;28;20053;-74
2021/09/16 00:52:46;;;;;;;0.30;0.30;;;;;;;7.49;72.78;99615.44;5050892;28;20186;-74
2021/09/16 00:55:13;;;;;;;0.30;0.30;;;;;;;7.51;72.98;99612.63;5050122;28;20530;-75
2021/09/16 00:57:40;;;;;;;0.30;0.30;;;;;;;7.52;72.99;99625.06;5033835;28;20076;-76
2021/09/16 01:00:08;;;;;;;0.30;0.30;;;;;;;7.48;73.10;99629.88;5050523;28;20080;-76
2021/09/16 01:02:34;;;;;;;0.30;0.30;;;;;;;7.42;72.24;99631.25;5050563;28;20080;-76
2021/09/16 01:05:00;;;;;;;0.30;0.30;;;;;;;7.41;72.53;99634.91;5067049;28;20446;-75
2021/09/16 01:07:26;;;;;;;0.30;0.30;;;;;;;7.49;72.66;99637.81;5050916;28;20063;-74
2021/09/16 01:09:52;;;;;;;0.30;0.30;;;;;;;7.44;72.29;99639.19;5000942;28;20143;-76
2021/09/16 01:12:17;;;;;;;0.30;0.30;;;;;;;7.44;72.31;99633.81;5051692;28;20079;-75
2021/09/16 01:14:44;;;;;;;0.30;0.30;;;;;;;7.41;72.18;99628.69;5051764;28;20057;-75
2021/09/16 01:17:09;;;;;;;0.30;0.30;;;;;;;7.37;72.69;99628.09;5049965;28;20091;-74
2021/09/16 01:19:35;;;;;;;0.30;0.30;;;;;;;7.40;72.51;99632.38;5033689;28;20061;-75
2021/09/16 01:22:01;;;;;;;0.30;0.30;;;;;;;7.39;72.28;99639.59;5050248;28;20574;-74
2021/09/16 01:24:27;;;;;;;0.30;0.30;;;;;;;7.40;72.06;99635.06;5051831;28;20057;-75
2021/09/16 01:26:53;;;;;;;0.20;0.20;;;;;;;7.32;72.96;99641.09;5049992;28;20522;-75
2021/09/16 01:29:18;;;;;;;0.30;0.30;;;;;;;7.35;71.77;99640.84;5050260;28;20057;-76
2021/09/16 01:31:47;;;;;;;0.30;0.30;;;;;;;7.35;71.17;99648.91;5066880;28;20055;-75
2021/09/16 01:34:14;;;;;;;0.30;0.30;;;;;;;7.41;71.69;99650.19;5050165;28;20052;-73
2021/09/16 01:36:41;;;;;;;0.30;0.30;;;;;;;7.32;71.33;99651.84;5049918;28;20057;-75
2021/09/16 01:39:09;;;;;;;0.30;0.30;;;;;;;7.29;71.45;99652.09;5049952;28;20053;-76
2021/09/16 01:41:35;;;;;;;0.30;0.30;;;;;;;7.23;71.51;99652.63;5033287;28;20129;-75
2021/09/16 01:44:01;;;;;;;0.30;0.30;;;;;;;7.26;70.83;99652.38;5016345;28;20053;-75
2021/09/16 01:46:27;;;;;;;0.30;0.30;;;;;;;7.34;71.02;99663.31;5033322;28;20111;-74
2021/09/16 01:48:53;;;;;;;0.30;0.30;;;;;;;7.39;70.33;99661.09;5051147;28;20603;-75
2021/09/16 01:51:18;;;;;;;0.30;0.30;;;;;;;7.41;70.00;99672.56;5066250;28;20148;-76
2021/09/16 01:53:44;;;;;;;0.30;0.30;;;;;;;7.39;70.42;99668.31;5032994;28;20144;-75
2021/09/16 01:56:10;;;;;;;0.30;0.30;;;;;;;7.39;71.08;99673.72;5050734;28;20139;-76
2021/09/16 01:58:38;;;;;;;0.30;0.30;;;;;;;7.40;70.46;99673.56;5049588;28;20053;-74
2021/09/16 02:01:04;;;;;;;0.30;0.30;;;;;;;7.40;70.26;99681.63;5049940;28;20057;-74
2021/09/16 02:03:31;;;;;;;0.30;0.30;;;;;;;7.31;70.78;99670.78;5049248;28;20053;-74
2021/09/16 02:05:57;;;;;;;0.30;0.30;;;;;;;7.31;71.12;99677.00;5049097;28;20053;-75
2021/09/16 02:08:23;;;;;;;0.30;0.30;;;;;;;7.32;71.13;99680.59;5064897;28;20178;-74
2021/09/16 02:10:48;;;;;;;0.30;0.30;;;;;;;7.31;70.95;99681.53;5032671;28;20147;-74
2021/09/16 02:13:14;;;;;;;0.30;0.30;;;;;;;7.23;71.25;99674.97;5049136;28;20045;-74
2021/09/16 02:15:40;;;;;;;0.30;0.30;;;;;;;7.36;71.04;99685.56;5032666;28;20392;-74
2021/09/16 02:18:05;;;;;;;0.30;0.30;;;;;;;7.32;71.63;99678.75;5065983;28;20055;-75
2021/09/16 02:20:32;;;;;;;0.30;0.30;;;;;;;7.32;71.10;99684.13;5032669;28;20077;-73
2021/09/16 02:22:58;;;;;;;0.30;0.30;;;;;;;7.35;70.83;99688.38;5048711;28;20107;-74
2021/09/16 02:25:24;;;;;;;0.30;0.30;;;;;;;7.32;70.95;99694.88;5048746;28;20041;-74
2021/09/16 02:27:49;;;;;;;0.30;0.30;;;;;;;7.24;71.26;99695.53;5049274;28;20139;-74
2021/09/16 02:30:15;;;;;;;0.30;0.30;;;;;;;7.28;71.37;99695.25;5050287;28;20135;-74
2021/09/16 02:32:41;;;;;;;0.30;0.30;;;;;;;7.28;71.61;99698.81;5049128;28;20471;-74
2021/09/16 02:35:07;;;;;;;0.30;0.30;;;;;;;7.20;71.94;99691.38;5065467;28;20169;-75
2021/09/16 02:37:33;;;;;;;0.30;0.30;;;;;;;7.13;72.08;99695.56;5048648;28;20649;-73
2021/09/16 02:39:59;;;;;;;0.30;0.30;;;;;;;7.07;71.99;99703.28;5048626;28;20056;-74
2021/09/16 02:42:25;;;;;;;0.30;0.30;;;;;;;7.07;72.36;99695.22;5048769;28;20087;-74
2021/09/16 02:44:51;;;;;;;0.30;0.30;;;;;;;7.17;72.13;99697.03;5048401;28;20068;-77
2021/09/16 02:47:16;;;;;;;0.30;0.30;;;;;;;7.20;71.79;99696.78;5050136;28;20071;-74
2021/09/16 02:49:42;;;;;;;0.30;0.30;;;;;;;7.25;72.00;99704.44;5048659;28;20132;-75
2021/09/16 02:52:08;;;;;;;0.30;0.30;;;;;;;7.19;72.62;99707.63;5049087;28;20579;-74
2021/09/16 02:54:33;;;;;;;0.30;0.30;;;;;;;7.12;72.50;99717.19;5049937;28;20060;-78
2021/09/16 02:56:59;;;;;;;0.30;0.30;;;;;;;7.07;72.69;99712.22;5049325;28;20080;-76
2021/09/16 02:59:25;;;;;;;0.30;0.30;;;;;;;7.13;72.61;99710.81;5032779;28;20061;-75
2021/09/16 03:01:51;;;;;;;0.30;0.30;;;;;;;7.08;72.47;99719.28;5050445;28;20071;-74
2021/09/16 03:04:16;;;;;;;0.30;0.30;;;;;;;7.06;72.52;99718.56;5051791;28;20483;-76
2021/09/16 03:06:42;;;;;;;0.30;0.30;;;;;;;7.12;72.28;99730.63;5068389;28;20550;-76
2021/09/16 03:09:08;;;;;;;0.30;0.30;;;;;;;7.15;71.91;99730.38;5068859;28;20613;-75
2021/09/16 03:11:34;;;;;;;0.30;0.30;;;;;;;7.12;72.00;99736.84;5070550;28;20056;-75
2021/09/16 03:13:59;;;;;;;0.30;0.30;;;;;;;6.91;72.66;99736.81;5069039;28;20110;-76
2021/09/16 03:16:25;;;;;;;0.30;0.30;;;;;;;6.95;73.10;99738.28;5052242;28;20064;-74
2021/09/16 03:18:51;;;;;;;0.30;0.30;;;;;;;6.91;73.13;99739.50;5068495;28;20445;-75
2021/09/16 03:21:17;;;;;;;0.30;0.30;;;;;;;6.86;73.72;99744.38;5070039;28;20476;-74
2021/09/16 03:23:43;;;;;;;0.30;0.30;;;;;;;6.83;73.82;99736.56;5039762;28;20060;-74
2021/09/16 03:26:09;;;;;;;0.30;0.30;;;;;;;6.76;74.53;99741.63;5053496;28;20052;-75
2021/09/16 03:28:38;;;;;;;0.30;0.30;;;;;;;6.75;74.98;99744.41;5051945;28;20526;-74
2021/09/16 03:31:05;;;;;;;0.30;0.30;;;;;;;6.82;74.70;99751.00;5052266;28;20507;-77
2021/09/16 03:33:31;;;;;;;0.30;0.30;;;;;;;6.85;74.97;99749.91;5068400;28;20631;-76
2021/09/16 03:35:57;;;;;;;0.30;0.30;;;;;;;6.85;75.36;99755.28;5068453;28;20070;-75
2021/09/16 03:38:23;;;;;;;0.30;0.30;;;;;;;6.83;75.57;99751.84;5068259;28;20513;-74
2021/09/16 03:40:49;;;;;;;0.30;0.30;;;;;;;6.94;75.19;99752.66;5051504;28;20049;-74
2021/09/16 03:43:15;;;;;;;0.30;0.30;;;;;;;6.96;75.34;99753.41;5018240;28;20060;-74
2021/09/16 03:45:40;;;;;;;0.30;0.30;;;;;;;7.00;75.74;99760.22;5068097;28;20610;-76
2021/09/16 03:48:07;;;;;;;0.30;0.30;;;;;;;7.03;75.67;99748.38;5035037;28;20045;-76
2021/09/16 03:50:34;;;;;;;0.30;0.30;;;;;;;6.91;76.31;99744.88;5051847;28;20139;-78
2021/09/16 03:53:00;;;;;;;0.30;0.30;;;;;;;6.85;76.99;99753.44;5035008;28;20492;-78
2021/09/16 03:55:26;;;;;;;0.30;0.30;;;;;;;6.95;76.71;99759.78;5068308;28;20385;-76
2021/09/16 03:57:52;;;;;;;0.30;0.30;;;;;;;6.95;76.77;99757.09;5051613;28;20052;-77
2021/09/16 04:00:18;;;;;;;0.30;0.30;;;;;;;7.03;76.84;99769.03;5068316;28;20198;-75
2021/09/16 04:02:44;;;;;;;0.30;0.30;;;;;;;7.13;76.93;99772.66;5051336;28;20041;-76
2021/09/16 04:05:10;;;;;;;0.32;0.32;;;;;;;7.14;76.41;99766.31;5068518;28;20068;-77
2021/09/16 04:07:36;;;;;;;0.30;0.30;;;;;;;7.08;77.38;99766.81;5035096;28;20127;-75
2021/09/16 04:10:03;;;;;;;0.30;0.30;;;;;;;7.11;77.81;99777.31;5038751;28;20447;-78
2021/09/16 04:12:29;;;;;;;0.30;0.30;;;;;;;7.12;78.08;99781.72;5072427;28;20055;-76
2021/09/16 04:14:54;;;;;;;0.30;0.30;;;;;;;7.13;77.95;99781.59;5071308;28;20064;-76
2021/09/16 04:17:20;;;;;;;0.30;0.30;;;;;;;7.25;78.29;99787.78;5054794;28;20048;-74
2021/09/16 04:19:46;;;;;;;0.30;0.30;;;;;;;7.21;78.81;99784.50;5054176;28;20393;-80
2021/09/16 04:22:11;;;;;;;0.30;0.30;;;;;;;7.17;79.56;99799.19;5070824;28;20508;-77
2021/09/16 04:24:37;;;;;;;0.30;0.30;;;;;;;7.22;79.77;99804.19;5054801;28;20052;-81
2021/09/16 04:27:04;;;;;;;0.30;0.30;;;;;;;7.11;81.05;99804.19;5037296;28;20062;-77
2021/09/16 04:29:29;;;;;;;0.30;0.30;;;;;;;7.13;81.55;99803.09;5071127;28;20060;-76
2021/09/16 04:31:56;;;;;;;0.30;0.30;;;;;;;6.89;82.23;99805.94;5073537;28;20423;-80
2021/09/16 04:34:22;;;;;;;0.30;0.30;;;;;;;6.95;81.76;99813.53;5051381;28;20055;-76
2021/09/16 04:36:48;;;;;;;0.40;0.40;;;;;;;7.05;81.88;99810.91;5054180;28;20170;-77
2021/09/16 04:39:14;;;;;;;0.40;0.40;;;;;;;6.91;82.05;99803.13;5059740;28;20068;-80
2021/09/16 04:41:39;;;;;;;0.30;0.30;;;;;;;6.92;82.13;99813.75;5073741;28;20083;-75
2021/09/16 04:44:05;;;;;;;0.30;0.30;;;;;;;6.98;82.43;99810.59;5055545;28;20540;-76
2021/09/16 04:46:31;;;;;;;0.40;0.40;;;;;;;6.92;83.51;99818.28;5079248;28;20519;-77
2021/09/16 04:48:57;;;;;;;0.30;0.30;;;;;;;6.90;83.65;99813.03;5067144;28;20186;-76
2021/09/16 04:51:23;;;;;;;0.30;0.30;;;;;;;6.93;84.25;99814.63;5066841;28;20401;-78
2021/09/16 04:53:48;;;;;;;0.30;0.30;;;;;;;6.86;84.50;99814.25;5059131;28;20051;-76
2021/09/16 04:56:14;;;;;;;0.30;0.30;;;;;;;6.93;84.28;99812.78;5028569;28;20143;-77
2021/09/16 04:58:40;;;;;;;0.30;0.30;;;;;;;7.12;83.71;99816.66;5031888;28;20052;-74
2021/09/16 05:01:06;;;;;;;0.30;0.30;;;;;;;7.03;84.42;99817.41;5058787;28;20052;-79
2021/09/16 05:03:31;;;;;;;0.40;0.40;;;;;;;7.09;84.51;99815.06;5032843;28;20547;-74
2021/09/16 05:05:57;;;;;;;0.40;0.40;;;;;;;6.97;84.81;99819.59;5063436;28;20109;-74
2021/09/16 05:08:23;;;;;;;0.35;0.35;;;;;;;7.03;85.40;99826.34;5070922;28;20055;-76
2021/09/16 05:10:49;;;;;;;0.30;0.30;;;;;;;7.18;85.02;99821.53;5056406;28;20089;-78
2021/09/16 05:13:15;;;;;;;0.30;0.30;;;;;;;7.23;85.11;99819.31;5064956;28;20500;-67
2021/09/16 05:15:41;;;;;;;0.40;0.40;;;;;;;7.21;85.36;99821.28;5053460;28;20159;-77
2021/09/16 05:18:07;;;;;;;0.30;0.30;;;;;;;7.33;85.45;99820.28;5064986;28;20053;-79
2021/09/16 05:20:34;;;;;;;0.30;0.30;;;;;;;7.36;85.41;99824.56;5024821;28;20324;-76
2021/09/16 05:23:00;;;;;;;0.38;0.38;;;;;;;7.41;85.40;99817.81;5062926;28;20102;-76
2021/09/16 05:25:26;;;;;;;0.30;0.30;;;;;;;7.44;85.03;99814.88;5056790;28;20478;-76
2021/09/16 05:27:52;;;;;;;0.40;0.40;;;;;;;7.46;85.46;99823.69;5054816;28;20107;-76
2021/09/16 05:30:18;;;;;;;0.30;0.30;;;;;;;7.44;85.82;99822.94;5026128;28;20059;-79
2021/09/16 05:32:44;;;;;;;0.30;0.30;;;;;;;7.44;85.39;99809.47;5033314;28;20060;-76
2021/09/16 05:35:10;;;;;;;0.40;0.40;;;;;;;7.45;85.57;99823.78;5028402;28;20106;-77
2021/09/16 05:37:36;;;;;;;0.30;0.30;;;;;;;7.53;85.05;99820.44;5052264;28;20073;-75
2021/09/16 05:40:03;;;;;;;0.30;0.30;;;;;;;7.56;85.91;99820.19;5048642;28;20049;-76
2021/09/16 05:42:29;;;;;;;0.30;0.30;;;;;;;7.53;85.03;99826.69;5049378;28;20304;-80
2021/09/16 05:44:55;;;;;;;0.30;0.30;;;;;;;7.53;85.17;99831.22;5035763;28;20749;-76
2021/09/16 05:47:22;;;;;;;0.38;0.38;;;;;;;7.65;85.03;99824.84;5063112;28;20226;-76
2021/09/16 05:49:48;;;;;;;0.30;0.30;;;;;;;7.73;84.65;99827.72;5074897;28;20045;-79
2021/09/16 05:52:14;;;;;;;0.30;0.30;;;;;;;7.76;84.63;99830.16;5051804;28;20099;-77
2021/09/16 05:54:40;;;;;;;0.30;0.30;;;;;;;7.84;84.55;99832.22;5080387;28;20139;-80
2021/09/16 05:57:05;;;;;;;0.30;0.30;;;;;;;7.83;84.26;99828.66;5061870;28;22016;-76
2021/09/16 05:59:31;;;;;;;0.40;0.40;;;;;;;7.93;84.20;99832.28;5054145;28;20709;-76
2021/09/16 06:01:57;;;;;;;0.30;0.30;;;;;;;7.94;83.71;99823.22;5073377;28;20151;-78
2021/09/16 06:04:24;;;;;;;0.30;0.30;;;;;;;7.83;84.16;99831.34;5040393;28;20121;-76
2021/09/16 06:06:49;;;;;;;0.30;0.30;;;;;;;7.83;84.96;99831.34;5072151;28;20068;-78
2021/09/16 06:09:16;;;;;;;0.30;0.30;;;;;;;7.86;84.74;99828.41;5023790;28;20111;-79
2021/09/16 06:11:42;;;;;;;0.32;0.32;;;;;;;7.88;84.56;99826.44;5037937;28;20484;-78
2021/09/16 06:14:08;;;;;;;0.30;0.30;;;;;;;8.00;84.71;99839.81;5075838;28;20094;-80
2021/09/16 06:16:33;;;;;;;0.30;0.30;;;;;;;7.98;84.62;99843.50;5066530;28;20502;-75
2021/09/16 06:18:59;;;;;;;0.30;0.30;;;;;;;8.01;84.42;99836.16;5075614;28;20055;-78
2021/09/16 06:21:25;;;;;;;0.30;0.30;;;;;;;8.05;84.98;99833.09;5052117;28;20139;-78
2021/09/16 06:23:51;;;;;;;0.30;0.30;;;;;;;8.11;84.97;99839.75;5067272;28;20083;-79
2021/09/16 06:26:17;;;;;;;0.30;0.30;;;;;;;8.12;85.25;99839.66;5044528;28;20052;-77
2021/09/16 06:28:42;;;;;;;0.30;0.30;;;;;;;8.29;85.42;99846.28;5057751;28;20056;-77
2021/09/16 06:31:08;;;;;;;0.30;0.30;;;;;;;8.37;83.98;99851.91;5051418;28;20075;-80
2021/09/16 06:33:34;;;;;;;0.30;0.30;;;;;;;8.52;84.42;99846.16;5050046;28;20048;-76
2021/09/16 06:36:00;;;;;;;0.30;0.30;;;;;;;8.57;84.46;99850.16;5033822;28;20379;-76
2021/09/16 06:38:27;;;;;;;0.30;0.30;;;;;;;8.68;83.98;99857.31;5069890;28;20049;-76
2021/09/16 06:40:53;;;;;;;0.30;0.30;;;;;;;8.86;84.26;99860.25;5052190;28;20082;-77
2021/09/16 06:43:20;;;;;;;0.30;0.30;;;;;;;8.85;82.57;99862.09;5071265;28;20138;-79
2021/09/16 06:45:47;;;;;;;0.30;0.30;;;;;;;8.95;81.95;99859.41;5037132;28;20060;-76
2021/09/16 06:48:13;;;;;;;0.30;0.30;;;;;;;9.06;81.21;99863.84;5065594;28;20570;-76
2021/09/16 06:50:39;;;;;;;0.30;0.30;;;;;;;9.11;81.56;99865.16;5058143;28;20518;-76
2021/09/16 06:53:05;;;;;;;0.30;0.30;;;;;;;9.23;81.43;99874.00;5054891;28;20045;-76
2021/09/16 06:55:30;;;;;;;0.30;0.30;;;;;;;9.23;80.03;99859.66;5065892;28;20052;-79
2021/09/16 06:57:56;;;;;;;0.30;0.30;;;;;;;9.32;80.63;99861.53;5044895;28;20047;-75
2021/09/16 07:00:22;;;;;;;0.40;0.40;;;;;;;9.36;79.09;99863.81;5080994;28;20139;-76
2021/09/16 07:02:52;;;;;;;0.40;0.40;;;;;;;9.60;79.94;99854.47;5057526;28;20523;-76
2021/09/16 07:05:18;;;;;;;0.40;0.40;;;;;;;9.74;78.67;99864.88;5052704;28;20078;-78
2021/09/16 07:07:44;;;;;;;0.40;0.40;;;;;;;9.86;78.61;99869.13;5056007;28;20407;-76
2021/09/16 07:10:10;;;;;;;0.30;0.30;;;;;;;9.94;76.77;99865.72;5065712;28;20508;-77
2021/09/16 07:12:36;;;;;;;0.30;0.30;;;;;;;10.01;77.07;99863.31;5034821;28;20080;-75
2021/09/16 07:15:02;;;;;;;0.30;0.30;;;;;;;10.18;76.66;99859.06;5036296;28;20072;-76
2021/09/16 07:17:28;;;;;;;0.30;0.30;;;;;;;10.32;76.17;99862.19;5054041;28;20056;-77
2021/09/16 07:19:53;;;;;;;0.32;0.32;;;;;;;10.32;73.85;99853.25;5035898;28;20454;-76
2021/09/16 07:22:19;;;;;;;0.30;0.30;;;;;;;10.41;73.29;99859.63;5063504;28;20128;-75
2021/09/16 07:24:45;;;;;;;0.40;0.40;;;;;;;10.62;71.39;99861.13;5069174;28;20147;-76
2021/09/16 07:27:11;;;;;;;0.40;0.40;;;;;;;10.85;72.28;99869.72;5056343;28;21181;-75
2021/09/16 07:29:37;;;;;;;0.50;0.50;;;;;;;11.20;71.33;99876.31;5082794;28;20060;-77
2021/09/16 07:32:03;;;;;;;0.50;0.50;;;;;;;11.60;68.87;99880.50;5079685;28;20048;-76
2021/09/16 07:34:34;;;;;;;0.40;0.40;;;;;;;12.01;66.85;99872.81;5063858;28;20079;-76
2021/09/16 07:37:01;;;;;;;0.30;0.30;;;;;;;11.82;67.34;99871.94;5053290;28;20468;-74
2021/09/16 07:39:26;;;;;;;0.30;0.30;;;;;;;11.48;68.20;99876.28;5063447;28;20527;-74
2021/09/16 07:41:52;;;;;;;0.30;0.30;;;;;;;11.15;68.16;99881.28;5079536;28;20078;-74
2021/09/16 07:44:18;;;;;;;0.30;0.30;;;;;;;11.00;67.97;99882.78;5040256;28;20496;-77
2021/09/16 07:46:45;;;;;;;0.30;0.30;;;;;;;11.04;68.15;99878.78;5066133;28;20162;-76
2021/09/16 07:49:11;;;;;;;0.30;0.30;;;;;;;11.02;69.60;99891.63;5065053;28;20051;-77
2021/09/16 07:51:37;;;;;;;0.30;0.30;;;;;;;11.13;69.86;99887.88;5070114;28;20045;-75
2021/09/16 07:54:03;;;;;;;0.30;0.30;;;;;;;11.24;68.75;99891.22;5049118;28;20466;-78
2021/09/16 07:56:29;;;;;;;0.30;0.30;;;;;;;11.21;68.60;99899.66;5054381;28;20053;-76
2021/09/16 07:58:55;;;;;;;0.30;0.30;;;;;;;11.08;67.64;99893.75;5036260;28;20480;-77
2021/09/16 08:01:21;;;;;;;0.20;0.20;;;;;;;10.99;68.15;99891.91;5042078;28;20040;-76
2021/09/16 08:03:47;;;;;;;0.20;0.20;;;;;;;10.85;69.96;99902.19;5058499;28;20075;-77
2021/09/16 08:06:14;;;;;;;0.30;0.30;;;;;;;10.88;70.40;99894.78;5057096;28;20052;-76
2021/09/16 08:08:40;;;;;;;0.30;0.30;;;;;;;10.84;71.22;99897.78;5032899;28;20048;-77
2021/09/16 08:11:06;;;;;;;0.40;0.40;;;;;;;11.15;69.66;99892.09;5054425;28;20044;-78
2021/09/16 08:13:31;;;;;;;0.40;0.40;;;;;;;11.57;68.26;99902.47;5029317;28;20048;-77
2021/09/16 08:15:57;;;;;;;0.30;0.30;;;;;;;11.68;66.37;99904.97;5049274;28;20048;-77
2021/09/16 08:18:23;;;;;;;0.30;0.30;;;;;;;11.64;66.16;99898.13;5051569;28;20055;-75
2021/09/16 08:20:50;;;;;;;0.30;0.30;;;;;;;11.59;66.18;99905.88;5058103;28;20041;-77
2021/09/16 08:23:17;;;;;;;0.30;0.30;;;;;;;11.63;65.36;99896.44;5069229;28;20122;-76
2021/09/16 08:25:43;;;;;;;0.30;0.30;;;;;;;11.53;65.91;99912.75;5077733;28;20205;-76
2021/09/16 08:28:09;;;;;;;0.30;0.30;;;;;;;11.54;65.43;99902.75;5085028;28;20102;-76
2021/09/16 08:30:35;;;;;;;0.30;0.30;;;;;;;11.58;65.95;99904.16;5057793;28;20068;-76
2021/09/16 08:33:01;;;;;;;0.20;0.20;;;;;;;11.59;64.61;99897.75;5080160;28;20135;-77
2021/09/16 08:35:27;;;;;;;0.20;0.20;;;;;;;11.52;64.16;99899.38;5027121;28;20052;-73
2021/09/16 08:37:53;;;;;;;0.20;0.20;;;;;;;11.28;65.07;99908.03;5090376;28;20059;-76
2021/09/16 08:40:21;;;;;;;0.30;0.30;;;;;;;11.05;66.39;99900.28;5060791;28;20064;-77
2021/09/16 08:42:47;;;;;;;0.30;0.30;;;;;;;10.93;67.54;99914.13;5067861;28;20053;-77
2021/09/16 08:45:16;;;;;;;0.30;0.30;;;;;;;10.76;68.50;99908.50;5041694;28;20170;-76
2021/09/16 08:47:44;;;;;;;0.30;0.30;;;;;;;10.65;67.51;99905.13;5029873;28;20143;-77
2021/09/16 08:50:11;;;;;;;0.30;0.30;;;;;;;10.62;68.32;99911.66;5067379;28;20510;-77
2021/09/16 08:52:43;;;;;;;0.40;0.40;;;;;;;10.83;67.67;99912.31;5080467;28;20048;-76
2021/09/16 08:55:10;;;;;;;0.30;0.30;;;;;;;10.92;66.88;99912.44;5052106;28;20066;-78
2021/09/16 08:57:43;;;;;;;0.50;0.50;;;;;;;11.48;65.19;99914.19;5065347;28;20494;-77
2021/09/16 09:00:16;;;;;;;0.40;0.40;;;;;;;11.73;64.78;99912.63;5059817;28;20047;-76
2021/09/16 09:02:47;;;;;;;0.50;0.50;;;;;;;12.06;62.43;99914.69;5097625;28;20071;-78
2021/09/16 09:05:14;;;;;;;1.30;1.30;;;;;;;13.43;58.73;99916.91;5085132;28;20800;-76
2021/09/16 09:07:42;;;;;;;0.60;0.60;;;;;;;14.13;54.97;99916.59;5048876;28;20142;-78
2021/09/16 09:10:10;;;;;;;0.40;0.40;;;;;;;14.30;55.54;99917.47;5054163;28;20048;-77
2021/09/16 09:12:37;;;;;;;0.40;0.40;;;;;;;14.50;54.66;99918.84;5087579;28;20146;-78
2021/09/16 09:15:06;;;;;;;0.30;0.30;;;;;;;14.02;54.06;99923.19;5104686;28;20066;-76
2021/09/16 09:17:33;;;;;;;0.30;0.30;;;;;;;13.45;55.63;99923.00;5083211;28;20064;-77
2021/09/16 09:20:08;;;;;;;0.20;0.20;;;;;;;13.26;55.51;99924.09;5068579;28;20048;-75
2021/09/16 09:22:37;;;;;;;0.20;0.20;;;;;;;12.84;57.49;99924.84;5077246;28;20455;-76
2021/09/16 09:25:12;;;;;;;0.20;0.20;;;;;;;12.69;58.25;99926.44;5075646;28;20147;-77
2021/09/16 09:27:46;;;;;;;0.30;0.30;;;;;;;12.42;58.80;99924.69;5098235;28;20059;-77
2021/09/16 09:30:16;;;;;;;0.20;0.20;;;;;;;12.31;59.07;99923.91;5079218;28;20058;-78
2021/09/16 09:32:45;;;;;;;0.20;0.20;;;;;;;11.92;60.42;99917.06;5072873;28;20052;-78
2021/09/16 09:35:31;;;;;;;0.20;0.20;;;;;;;11.64;60.91;99925.22;5065470;28;22080;-77
2021/09/16 09:37:59;;;;;;;0.30;0.30;;;;;;;11.67;61.25;99924.94;5066069;28;20550;-77
2021/09/16 09:40:33;;;;;;;0.30;0.30;;;;;;;11.78;61.53;99930.13;5039428;28;20383;-76
2021/09/16 09:43:31;;;;;;;0.30;0.30;;;;;;;11.88;60.64;99926.53;5095369;28;20082;-78
2021/09/16 09:45:57;;;;;;;0.30;0.30;;;;;;;12.00;59.85;99936.16;5052704;28;20162;-80
2021/09/16 09:48:23;;;;;;;0.30;0.30;;;;;;;12.17;59.67;99916.31;5078674;28;20138;-72
2021/09/16 09:50:52;;;;;;;0.30;0.30;;;;;;;12.26;59.96;99928.97;5043206;28;20044;-77
2021/09/16 09:53:18;;;;;;;0.30;0.30;;;;;;;12.28;59.57;99924.22;5080736;28;20455;-78
2021/09/16 09:55:44;;;;;;;0.30;0.30;;;;;;;12.11;60.39;99935.09;5046485;28;20586;-77
2021/09/16 09:58:11;;;;;;;0.30;0.30;;;;;;;11.71;60.71;99926.31;5038739;28;20068;-78
2021/09/16 10:00:37;;;;;;;0.30;0.30;;;;;;;11.70;61.75;99935.47;5057870;28;20039;-75
2021/09/16 10:03:04;;;;;;;0.30;0.30;;;;;;;11.53;61.64;99938.97;5061211;28;20082;-77
2021/09/16 10:05:38;;;;;;;0.20;0.20;;;;;;;11.41;62.34;99940.16;5071487;28;20069;-77
2021/09/16 10:08:06;;;;;;;;;;;;;;;11.35;62.37;99945.16;5087102;28;20085;-76
2021/09/16 10:10:41;;;;;;;0.20;0.20;;;;;;;11.12;63.21;99940.28;5065360;28;19923;-76
2021/09/16 10:13:07;;;;;;;0.30;0.30;;;;;;;11.15;63.44;99954.34;5070956;28;20052;-76
2021/09/16 10:15:34;;;;;;;0.30;0.30;;;;;;;10.94;64.39;99949.16;5051048;28;20427;-75
2021/09/16 10:18:00;;;;;;;0.30;0.30;;;;;;;10.90;64.00;99958.56;5070836;28;20534;-76
2021/09/16 10:20:28;;;;;;;0.30;0.30;;;;;;;10.85;64.32;99950.88;5078002;28;20464;-76
2021/09/16 10:22:59;;;;;;;0.20;0.20;;;;;;;10.67;64.42;99960.72;5073928;28;20063;-72
2021/09/16 10:25:27;;;;;;;0.20;0.20;;;;;;;10.59;64.35;99950.63;5035444;28;20043;-77
2021/09/16 10:28:11;;;;;;;0.30;0.30;;;;;;;10.54;64.68;99957.50;5072513;28;20184;-76
2021/09/16 10:30:39;;;;;;;0.30;0.30;;;;;;;10.55;64.17;99954.63;5078337;28;20124;-76
2021/09/16 10:33:16;;;;;;;0.30;0.30;;;;;;;10.56;64.89;99955.47;5027942;28;20056;-77
2021/09/16 10:36:03;;;;;;;0.30;0.30;;;;;;;10.64;63.98;99958.34;5059002;28;20433;-77
2021/09/16 10:38:34;;;;;;;0.30;0.30;;;;;;;10.65;64.09;99960.03;5046710;28;20058;-76
2021/09/16 10:41:21;;;;;;;0.30;0.30;;;;;;;10.78;63.70;99957.00;5046642;28;20423;-76
2021/09/16 10:43:59;;;;;;;0.30;0.30;;;;;;;10.86;63.47;99958.00;5071304;28;20048;-77
2021/09/16 10:46:28;;;;;;;0.20;0.20;;;;;;;10.99;63.07;99956.84;5088527;28;20044;-77
2021/09/16 10:48:56;;;;;;;0.30;0.30;;;;;;;10.96;63.36;99962.53;5073678;28;20112;-77
2021/09/16 10:51:42;;;;;;;0.30;0.30;;;;;;;10.84;63.38;99954.59;5038341;28;20075;-76
2021/09/16 10:54:27;;;;;;;0.30;0.30;;;;;;;10.97;62.38;99956.13;5038024;28;20060;-76
2021/09/16 10:57:12;;;;;;;0.30;0.30;;;;;;;11.02;61.87;99951.13;5090676;28;20040;-77
2021/09/16 10:59:52;;;;;;;0.30;0.30;;;;;;;11.03;61.77;99947.41;5053034;28;20688;-77
2021/09/16 11:02:31;;;;;;;0.22;0.22;;;;;;;11.07;61.88;99951.53;5079426;27;1473922;-77
2021/09/16 11:05:12;;;;;;;0.30;0.30;;;;;;;10.99;61.84;99946.84;5090720;27;20381;-76
2021/09/16 11:07:38;;;;;;;0.30;0.30;;;;;;;10.99;62.25;99951.41;5068507;28;20059;-77
2021/09/16 11:10:13;;;;;;;0.30;0.30;;;;;;;11.11;60.97;99963.75;5051374;28;20313;-77
2021/09/16 11:12:47;;;;;;;0.30;0.30;;;;;;;10.97;60.87;99948.00;5068595;28;20138;-77
2021/09/16 11:15:23;;;;;;;0.30;0.30;;;;;;;11.09;61.32;99957.66;5067615;28;20044;-77
2021/09/16 11:17:50;;;;;;;0.30;0.30;;;;;;;11.12;61.35;99959.22;5084858;28;20587;-77
2021/09/16 11:20:27;;;;;;;0.30;0.30;;;;;;;11.25;60.89;99957.03;5183540;27;20731;-77
2021/09/16 11:23:05;;;;;;;0.30;0.30;;;;;;;11.20;60.65;99957.47;5122962;27;20388;-77
2021/09/16 11:25:45;;;;;;;0.30;0.30;;;;;;;11.18;61.32;99955.91;5093364;27;20922;-77
2021/09/16 11:28:22;;;;;;;0.30;0.30;;;;;;;11.08;61.56;99961.38;5085891;27;20386;-76
2021/09/16 11:30:59;;;;;;;0.30;0.30;;;;;;;11.09;61.38;99961.22;5096546;27;20388;-78
2021/09/16 11:33:35;;;;;;;0.30;0.30;;;;;;;11.14;61.55;99966.19;5103177;27;20889;-77
2021/09/16 11:36:14;;;;;;;0.30;0.30;;;;;;;11.27;61.30;99964.00;5086920;27;20420;-77
2021/09/16 11:39:12;;;;;;;0.30;0.30;;;;;;;11.27;61.32;99955.91;5100719;27;20597;-77
2021/09/16 11:42:16;;;;;;;0.30;0.30;;;;;;;10.99;62.28;99965.78;5126914;27;20597;-78